Terminal Aerodrome Forecast
Issued by NWS

Home | Current Version | Previous Version | Text Only | Print | Product List | Glossary On
Versions: 1 2 3 4 5 6 7 8 9 10 11 12 13 14
482
FTUS46 KLOX 260523
TAFPMD
TAF
KPMD 260523Z 2606/2706 23006KT P6SM SKC
     FM262000 24012KT P6SM SCT250
     FM262300 24018G25KT P6SM SCT250
     FM270400 24015KT P6SM SCT250=

USA.gov is the U.S. government's official web portal to all federal, state and local government web resources and services.